Time;durP1;ratioP1;P1;durP2;ratioP2;P2;SDS_P1;SDS_P2;PMS_P1;PMS_P2;Temp;Humidity;BMP_temperature;BMP_pressure;BME280_temperature;BME280_humidity;BME280_pressure;Samples;Min_cycle;Max_cycle;Signal;HPM_P1;HPM_P2
2023/09/02 00:01:56;;;;;;;6.60;3.30;;;;;;;;;;5055310;28;20557;-73
2023/09/02 00:04:22;;;;;;;5.87;3.63;;;;;;;;;;5072637;28;20261;-74
2023/09/02 00:06:49;;;;;;;3.70;3.03;;;;;;;;;;5075192;28;20217;-74
2023/09/02 00:13:16;;;;;;;6.97;3.30;;;;;;;;;;5075149;28;20146;-74
2023/09/02 00:19:43;;;;;;;5.27;3.03;;;;;;;;;;5075156;28;20180;-74
2023/09/02 00:22:10;;;;;;;5.23;2.77;;;;;;;;;;5074517;28;20252;-73
2023/09/02 00:24:54;;;;;;;8.37;3.23;;;;;;;;;;5057544;28;20166;-74
2023/09/02 00:27:21;;;;;;;6.13;3.43;;;;;;;;;;5050448;28;20187;-74
2023/09/02 00:29:48;;;;;;;3.93;3.20;;;;;;;;;;5037161;28;20191;-73
2023/09/02 00:32:14;;;;;;;4.13;2.77;;;;;;;;;;5037134;28;20225;-73
2023/09/02 00:34:41;;;;;;;3.53;3.10;;;;;;;;;;5037097;28;20634;-73
2023/09/02 00:37:08;;;;;;;5.00;3.00;;;;;;;;;;5055831;28;20198;-73
2023/09/02 00:39:34;;;;;;;5.27;3.13;;;;;;;;;;5054955;28;20186;-74
2023/09/02 00:42:01;;;;;;;5.53;3.40;;;;;;;;;;5054811;28;20214;-73
2023/09/02 00:48:39;;;;;;;6.23;3.13;;;;;;;;;;5054455;28;20190;-74
2023/09/02 00:51:05;;;;;;;3.43;3.10;;;;;;;;;;5053058;28;20597;-76
2023/09/02 00:57:32;;;;;;;4.67;3.20;;;;;;;;;;5057538;28;20227;-73
2023/09/02 00:59:59;;;;;;;4.77;3.37;;;;;;;;;;5074017;28;20270;-72
2023/09/02 01:02:26;;;;;;;3.90;3.10;;;;;;;;;;5074334;28;20244;-73
2023/09/02 01:04:52;;;;;;;5.40;3.37;;;;;;;;;;5056372;28;20198;-73
2023/09/02 01:07:19;;;;;;;4.97;3.20;;;;;;;;;;5056976;28;20216;-73
2023/09/02 01:09:46;;;;;;;5.60;3.23;;;;;;;;;;5056140;28;20273;-73
2023/09/02 01:48:09;;;;;;;4.67;2.70;;;;;;;;;;5073697;28;20138;-73
2023/09/02 01:50:35;;;;;;;3.67;2.53;;;;;;;;;;5055878;28;20218;-74
2023/09/02 01:53:02;;;;;;;4.17;3.00;;;;;;;;;;5073117;28;20221;-74
2023/09/02 01:55:30;;;;;;;6.53;3.13;;;;;;;;;;5055637;28;20194;-74
2023/09/02 01:57:57;;;;;;;3.23;2.53;;;;;;;;;;5055691;28;20186;-73
2023/09/02 02:00:24;;;;;;;3.60;2.70;;;;;;;;;;5055971;28;20194;-74
2023/09/02 02:02:54;;;;;;;4.00;2.80;;;;;;;;;;5073691;28;20529;-74
2023/09/02 02:05:33;;;;;;;4.33;2.90;;;;;;;;;;5073119;28;20528;-74
2023/09/02 02:08:01;;;;;;;3.77;2.90;;;;;;;;;;5055769;28;20243;-74
2023/09/02 02:10:28;;;;;;;4.40;2.60;;;;;;;;;;5057772;28;20225;-74
2023/09/02 02:12:55;;;;;;;4.13;2.80;;;;;;;;;;5060149;28;20190;-74
2023/09/02 02:15:21;;;;;;;3.90;2.93;;;;;;;;;;5076778;28;20213;-74
2023/09/02 02:17:48;;;;;;;4.27;2.87;;;;;;;;;;5043154;28;20194;-74
2023/09/02 02:20:15;;;;;;;4.20;3.17;;;;;;;;;;5060094;28;20189;-74
2023/09/02 02:22:59;;;;;;;3.73;3.20;;;;;;;;;;5076522;28;20193;-74
2023/09/02 02:29:25;;;;;;;4.70;3.10;;;;;;;;;;5077247;28;20146;-74
2023/09/02 02:31:51;;;;;;;4.03;2.77;;;;;;;;;;5059350;28;20255;-74
2023/09/02 02:38:11;;;;;;;5.13;2.90;;;;;;;;;;5077015;28;20611;-74
2023/09/02 02:40:38;;;;;;;3.80;3.20;;;;;;;;;;5077103;28;20584;-74
2023/09/02 02:43:05;;;;;;;3.83;2.90;;;;;;;;;;5059054;28;20201;-74
2023/09/02 02:49:25;;;;;;;4.00;2.73;;;;;;;;;;5076584;28;20157;-74
2023/09/02 02:51:51;;;;;;;3.93;2.77;;;;;;;;;;5059564;28;20182;-75
2023/09/02 02:54:18;;;;;;;4.60;3.13;;;;;;;;;;5077711;28;20277;-74
2023/09/02 02:56:45;;;;;;;4.53;3.30;;;;;;;;;;5076113;28;20200;-74
2023/09/02 02:59:12;;;;;;;5.10;3.23;;;;;;;;;;5059035;28;20209;-74
2023/09/02 03:01:39;;;;;;;4.30;2.97;;;;;;;;;;5075179;28;20552;-74
2023/09/02 03:04:06;;;;;;;3.40;2.70;;;;;;;;;;5058797;28;20306;-74
2023/09/02 03:06:33;;;;;;;4.07;3.00;;;;;;;;;;5058948;28;20193;-74
2023/09/02 03:08:59;;;;;;;8.43;3.33;;;;;;;;;;5059916;28;20187;-74
2023/09/02 03:11:26;;;;;;;5.07;3.30;;;;;;;;;;5056523;28;20220;-74
2023/09/02 03:13:54;;;;;;;4.37;3.40;;;;;;;;;;5022303;28;20281;-74
2023/09/02 03:16:25;;;;;;;5.10;3.63;;;;;;;;;;5022705;28;20190;-74
2023/09/02 03:18:52;;;;;;;5.00;3.33;;;;;;;;;;5022418;28;20187;-74
2023/09/02 03:21:19;;;;;;;3.60;3.10;;;;;;;;;;5038175;28;20179;-74
2023/09/02 03:24:04;;;;;;;5.77;3.47;;;;;;;;;;5041508;28;20255;-74
2023/09/02 03:30:31;;;;;;;4.80;3.57;;;;;;;;;;5055940;28;20601;-74
2023/09/02 03:32:58;;;;;;;5.97;3.70;;;;;;;;;;5038300;28;20190;-74
2023/09/02 03:39:42;;;;;;;6.60;4.10;;;;;;;;;;5055980;28;20190;-74
2023/09/02 03:42:09;;;;;;;7.00;3.60;;;;;;;;;;5055642;28;20222;-74
2023/09/02 03:44:36;;;;;;;4.73;3.40;;;;;;;;;;5038550;28;20190;-74
2023/09/02 03:47:03;;;;;;;7.50;4.13;;;;;;;;;;5038371;28;20526;-74
2023/09/02 03:49:49;;;;;;;7.30;4.07;;;;;;;;;;5024300;28;20288;-74
2023/09/02 03:52:16;;;;;;;7.77;4.10;;;;;;;;;;5039492;28;20190;-74
2023/09/02 03:55:00;;;;;;;6.77;4.20;;;;;;;;;;5039700;28;20175;-74
2023/09/02 03:57:28;;;;;;;5.33;4.00;;;;;;;;;;5056158;28;20177;-74
2023/09/02 03:59:55;;;;;;;6.43;3.97;;;;;;;;;;5039158;28;20191;-74
2023/09/02 04:02:22;;;;;;;5.47;3.90;;;;;;;;;;5021880;28;20256;-74
2023/09/02 04:08:50;;;;;;;7.17;4.47;;;;;;;;;;5056230;28;20494;-74
2023/09/02 04:11:18;;;;;;;5.93;4.50;;;;;;;;;;5038300;28;20232;-74
2023/09/02 04:13:47;;;;;;;8.47;4.57;;;;;;;;;;5056415;28;20194;-73
2023/09/02 04:16:16;;;;;;;5.53;3.83;;;;;;;;;;5038211;28;20199;-74
2023/09/02 04:18:43;;;;;;;7.47;5.20;;;;;;;;;;5038089;28;20269;-74
2023/09/02 04:21:10;;;;;;;9.00;5.27;;;;;;;;;;5055795;28;20566;-75
2023/09/02 04:23:41;;;;;;;7.93;4.60;;;;;;;;;;5038772;28;20253;-74
2023/09/02 04:26:14;;;;;;;6.43;4.70;;;;;;;;;;5043375;28;20240;-75
2023/09/02 04:29:00;;;;;;;8.17;5.07;;;;;;;;;;5076205;28;20600;-74
2023/09/02 04:31:29;;;;;;;7.63;5.10;;;;;;;;;;5057334;28;20224;-74
2023/09/02 04:34:13;;;;;;;9.00;5.63;;;;;;;;;;5057657;28;20170;-74
2023/09/02 04:36:40;;;;;;;7.07;6.27;;;;;;;;;;5075844;28;20174;-74
2023/09/02 04:39:07;;;;;;;8.20;7.10;;;;;;;;;;5057699;28;20202;-74
2023/09/02 04:41:35;;;;;;;9.20;6.73;;;;;;;;;;5075019;28;20193;-74
2023/09/02 04:44:03;;;;;;;7.80;6.80;;;;;;;;;;5057610;28;20209;-74
2023/09/02 04:46:32;;;;;;;12.53;7.20;;;;;;;;;;5074795;28;20186;-74
2023/09/02 04:52:59;;;;;;;9.90;7.57;;;;;;;;;;5074794;28;20211;-74
2023/09/02 04:55:31;;;;;;;9.87;7.20;;;;;;;;;;5056982;28;20526;-75
2023/09/02 04:57:59;;;;;;;10.43;8.37;;;;;;;;;;5041617;28;20190;-74
2023/09/02 05:00:28;;;;;;;12.57;7.60;;;;;;;;;;5040679;28;20218;-74
2023/09/02 05:06:53;;;;;;;9.57;6.93;;;;;;;;;;5074890;28;20149;-74
2023/09/02 05:09:20;;;;;;;8.40;6.90;;;;;;;;;;5041376;28;20217;-74
2023/09/02 05:15:41;;;;;;;9.53;7.73;;;;;;;;;;5074481;28;20176;-73
2023/09/02 05:22:01;;;;;;;9.50;7.63;;;;;;;;;;5073939;28;20628;-76
2023/09/02 05:24:45;;;;;;;10.20;8.07;;;;;;;;;;5059437;28;20236;-80
2023/09/02 05:31:13;;;;;;;10.57;7.97;;;;;;;;;;5075309;28;20667;-73
2023/09/02 05:37:39;;;;;;;12.30;7.73;;;;;;;;;;5073837;28;20248;-71
2023/09/02 05:40:06;;;;;;;10.53;7.30;;;;;;;;;;5073676;28;20648;-72
2023/09/02 05:42:33;;;;;;;11.47;8.13;;;;;;;;;;5039454;28;20239;-77
2023/09/02 05:45:00;;;;;;;12.00;7.53;;;;;;;;;;5056364;28;20185;-75
2023/09/02 05:51:28;;;;;;;11.33;6.73;;;;;;;;;;5073642;28;20157;-74
2023/09/02 05:53:55;;;;;;;10.17;7.40;;;;;;;;;;5056442;28;20621;-74
2023/09/02 06:00:17;;;;;;;10.57;7.50;;;;;;;;;;5073769;28;20150;-72
2023/09/02 06:02:44;;;;;;;8.20;6.83;;;;;;;;;;5073999;28;20297;-71
2023/09/02 06:05:11;;;;;;;9.07;6.73;;;;;;;;;;5073823;28;20631;-71
2023/09/02 06:07:38;;;;;;;11.07;6.50;;;;;;;;;;5039389;28;20186;-72
2023/09/02 06:10:05;;;;;;;8.33;6.70;;;;;;;;;;5056294;28;20292;-71
2023/09/02 06:12:32;;;;;;;8.50;6.70;;;;;;;;;;5039662;28;20189;-71
2023/09/02 06:15:00;;;;;;;8.00;6.27;;;;;;;;;;5073446;28;20181;-72
2023/09/02 06:17:30;;;;;;;7.90;6.47;;;;;;;;;;5051895;28;20187;-72
2023/09/02 06:19:58;;;;;;;7.47;6.60;;;;;;;;;;5036411;28;20254;-71
2023/09/02 06:22:25;;;;;;;7.47;5.83;;;;;;;;;;5053263;28;20232;-72
2023/09/02 06:24:53;;;;;;;10.10;6.20;;;;;;;;;;5053883;28;20195;-72
2023/09/02 06:27:20;;;;;;;9.03;6.57;;;;;;;;;;5036025;28;20210;-71
2023/09/02 06:29:48;;;;;;;7.97;6.50;;;;;;;;;;5053415;28;20182;-72
2023/09/02 06:32:33;;;;;;;8.67;5.77;;;;;;;;;;5053912;28;20165;-80
2023/09/02 06:35:00;;;;;;;7.63;5.63;;;;;;;;;;5020950;28;20648;-79
2023/09/02 06:37:29;;;;;;;7.70;5.70;;;;;;;;;;5036599;28;20194;-79
2023/09/02 06:39:56;;;;;;;8.37;5.27;;;;;;;;;;5020057;28;20190;-78
2023/09/02 06:42:23;;;;;;;8.93;5.60;;;;;;;;;;5036622;28;20550;-80
2023/09/02 06:44:54;;;;;;;7.13;5.73;;;;;;;;;;5054132;28;20202;-77
2023/09/02 06:47:21;;;;;;;9.73;5.73;;;;;;;;;;5054912;28;20186;-77
2023/09/02 06:49:48;;;;;;;7.37;5.53;;;;;;;;;;5036021;28;20604;-78
2023/09/02 06:52:15;;;;;;;5.97;4.83;;;;;;;;;;5020140;28;20226;-71
2023/09/02 06:54:42;;;;;;;5.50;4.70;;;;;;;;;;5053838;28;20187;-73
2023/09/02 06:57:09;;;;;;;6.43;4.70;;;;;;;;;;5037932;28;20242;-73
2023/09/02 06:59:36;;;;;;;6.43;4.73;;;;;;;;;;5022985;28;20221;-73
2023/09/02 07:06:05;;;;;;;4.83;3.63;;;;;;;;;;5057031;28;20177;-73
2023/09/02 07:08:32;;;;;;;5.90;3.70;;;;;;;;;;5022761;28;20186;-73
2023/09/02 07:10:59;;;;;;;5.30;3.80;;;;;;;;;;5039369;28;20284;-73
2023/09/02 07:13:25;;;;;;;5.30;3.40;;;;;;;;;;5057009;28;20194;-73
2023/09/02 07:15:59;;;;;;;4.03;3.47;;;;;;;;;;5022732;28;20284;-72
2023/09/02 07:18:25;;;;;;;5.77;3.93;;;;;;;;;;5039367;28;20256;-72
2023/09/02 07:20:56;;;;;;;4.57;3.30;;;;;;;;;;5057269;28;20653;-73
2023/09/02 07:23:25;;;;;;;6.27;3.20;;;;;;;;;;5039743;28;20241;-75
2023/09/02 07:26:10;;;;;;;4.77;3.40;;;;;;;;;;5029513;28;20304;-76
2023/09/02 07:28:39;;;;;;;4.73;3.43;;;;;;;;;;5058041;28;20186;-74
2023/09/02 07:31:06;;;;;;;8.57;3.10;;;;;;;;;;5039041;28;20219;-74
2023/09/02 07:33:33;;;;;;;5.20;2.93;;;;;;;;;;5038703;28;20240;-74
2023/09/02 07:36:08;;;;;;;4.53;2.73;;;;;;;;;;5056207;28;20190;-73
2023/09/02 07:38:36;;;;;;;4.43;2.80;;;;;;;;;;5038757;28;20194;-73
2023/09/02 07:41:10;;;;;;;3.67;2.30;;;;;;;;;;5039518;28;20179;-72
2023/09/02 07:43:39;;;;;;;3.83;2.50;;;;;;;;;;5023632;28;20522;-72
2023/09/02 07:46:06;;;;;;;4.67;2.87;;;;;;;;;;5038240;28;20202;-69
2023/09/02 07:48:33;;;;;;;4.23;2.80;;;;;;;;;;5038020;28;20244;-69
2023/09/02 07:51:00;;;;;;;3.30;2.37;;;;;;;;;;5056194;28;20178;-69
2023/09/02 07:53:27;;;;;;;3.97;2.50;;;;;;;;;;5055657;28;20229;-70
2023/09/02 07:55:54;;;;;;;4.10;2.30;;;;;;;;;;5055547;28;20183;-70
2023/09/02 07:58:42;;;;;;;7.00;2.50;;;;;;;;;;5026762;28;20166;-72
2023/09/02 08:01:09;;;;;;;6.20;2.73;;;;;;;;;;5055867;28;20187;-73
2023/09/02 08:03:36;;;;;;;8.17;2.97;;;;;;;;;;5021598;28;20211;-73
2023/09/02 08:06:06;;;;;;;5.37;2.20;;;;;;;;;;5037624;28;20196;-74
2023/09/02 08:08:33;;;;;;;3.83;1.90;;;;;;;;;;5055122;28;20179;-73
2023/09/02 08:11:04;;;;;;;7.10;2.50;;;;;;;;;;5055769;28;20207;-72
2023/09/02 08:13:31;;;;;;;4.43;2.10;;;;;;;;;;5055813;28;20171;-74
2023/09/02 08:15:59;;;;;;;3.57;2.07;;;;;;;;;;5055056;28;20215;-73
2023/09/02 08:18:26;;;;;;;4.17;2.00;;;;;;;;;;5037768;28;20683;-72
2023/09/02 08:20:53;;;;;;;2.87;2.20;;;;;;;;;;5037788;28;20184;-74
2023/09/02 08:23:20;;;;;;;3.93;2.17;;;;;;;;;;5037226;28;20210;-70
2023/09/02 08:25:48;;;;;;;3.97;2.10;;;;;;;;;;5055455;28;20187;-70
2023/09/02 08:28:15;;;;;;;5.10;2.10;;;;;;;;;;5037502;28;20191;-69
2023/09/02 08:30:42;;;;;;;3.00;2.20;;;;;;;;;;5054981;28;20568;-69
2023/09/02 08:33:09;;;;;;;5.37;2.13;;;;;;;;;;5037676;28;20269;-68
2023/09/02 08:35:36;;;;;;;2.80;1.80;;;;;;;;;;5037491;28;20187;-69
2023/09/02 08:38:04;;;;;;;3.37;1.90;;;;;;;;;;5037864;28;20625;-66
2023/09/02 08:40:49;;;;;;;4.13;2.07;;;;;;;;;;5039858;28;20178;-70
2023/09/02 08:43:16;;;;;;;3.40;2.10;;;;;;;;;;5020572;28;20275;-68
2023/09/02 08:45:43;;;;;;;3.43;1.93;;;;;;;;;;5054552;28;20181;-67
2023/09/02 08:48:11;;;;;;;2.63;1.77;;;;;;;;;;5037138;28;20182;-67
2023/09/02 08:50:38;;;;;;;3.37;1.80;;;;;;;;;;5054674;28;20186;-67
2023/09/02 08:53:22;;;;;;;4.70;1.93;;;;;;;;;;5040521;28;20216;-75
2023/09/02 08:55:49;;;;;;;2.70;1.80;;;;;;;;;;5020808;28;20193;-73
2023/09/02 08:58:34;;;;;;;3.57;1.80;;;;;;;;;;5040162;28;20248;-75
2023/09/02 09:01:01;;;;;;;5.83;2.00;;;;;;;;;;5054880;28;20179;-74
2023/09/02 09:03:29;;;;;;;1.90;1.50;;;;;;;;;;5036979;28;20545;-74
2023/09/02 09:05:57;;;;;;;4.87;1.80;;;;;;;;;;5020857;28;20206;-73
2023/09/02 09:08:24;;;;;;;3.10;1.50;;;;;;;;;;5054498;28;20179;-73
2023/09/02 09:10:51;;;;;;;2.37;1.80;;;;;;;;;;5037304;28;20239;-74
2023/09/02 09:13:18;;;;;;;2.10;1.67;;;;;;;;;;5021048;28;20195;-74
2023/09/02 09:15:45;;;;;;;3.43;1.80;;;;;;;;;;5037038;28;20183;-74
2023/09/02 09:18:30;;;;;;;1.83;1.50;;;;;;;;;;5023391;28;20171;-73
2023/09/02 09:20:57;;;;;;;1.97;1.57;;;;;;;;;;5036326;28;20193;-74
2023/09/02 09:23:24;;;;;;;2.13;1.40;;;;;;;;;;5037044;28;20206;-74
2023/09/02 09:25:52;;;;;;;2.97;1.73;;;;;;;;;;5054457;28;20193;-74
2023/09/02 09:28:19;;;;;;;2.83;1.30;;;;;;;;;;5037822;28;20573;-73
2023/09/02 09:31:14;;;;;;;2.90;1.37;;;;;;;;;;5039359;28;20151;-73
2023/09/02 09:33:48;;;;;;;2.73;1.57;;;;;;;;;;5020461;28;20240;-73
2023/09/02 09:36:17;;;;;;;1.70;1.60;;;;;;;;;;5054415;28;20589;-73
2023/09/02 09:38:43;;;;;;;2.43;1.70;;;;;;;;;;5037337;28;20188;-73
2023/09/02 09:41:11;;;;;;;3.63;1.43;;;;;;;;;;5054846;28;20205;-74
2023/09/02 09:43:38;;;;;;;1.40;1.30;;;;;;;;;;5054254;28;20205;-73
2023/09/02 09:46:05;;;;;;;3.73;1.30;;;;;;;;;;5055257;28;20183;-73
2023/09/02 09:48:32;;;;;;;1.90;1.20;;;;;;;;;;5054320;28;20183;-74
2023/09/02 09:50:59;;;;;;;2.13;1.47;;;;;;;;;;5036393;28;20294;-73
2023/09/02 09:53:32;;;;;;;1.73;1.50;;;;;;;;;;5053961;28;20233;-73
2023/09/02 09:56:02;;;;;;;1.93;1.40;;;;;;;;;;5037063;28;20173;-74
2023/09/02 09:58:47;;;;;;;3.93;1.40;;;;;;;;;;5036112;28;20521;-73
2023/09/02 10:01:23;;;;;;;2.97;1.20;;;;;;;;;;5036743;28;20188;-73
2023/09/02 10:03:51;;;;;;;2.80;1.53;;;;;;;;;;5004969;28;20577;-73
2023/09/02 10:06:20;;;;;;;2.60;1.53;;;;;;;;;;5020795;28;20197;-73
2023/09/02 10:08:51;;;;;;;3.77;1.67;;;;;;;;;;5036664;28;20201;-74
2023/09/02 10:11:36;;;;;;;3.93;1.43;;;;;;;;;;5038706;28;20185;-74
2023/09/02 10:14:03;;;;;;;2.67;1.20;;;;;;;;;;5053981;28;20192;-74
2023/09/02 10:16:30;;;;;;;2.80;1.40;;;;;;;;;;5054549;28;20276;-75
2023/09/02 10:23:07;;;;;;;1.80;1.40;;;;;;;;;;5053890;28;20264;-73
2023/09/02 10:29:53;;;;;;;3.73;1.50;;;;;;;;;;5073846;28;20593;-73
2023/09/02 10:36:19;;;;;;;1.70;1.40;;;;;;;;;;5058046;28;20268;-75
2023/09/02 10:42:47;;;;;;;1.50;1.20;;;;;;;;;;5057437;28;20179;-74
2023/09/02 10:45:16;;;;;;;2.97;1.20;;;;;;;;;;5057807;28;20260;-73
2023/09/02 10:52:00;;;;;;;3.03;1.27;;;;;;;;;;5057502;28;20268;-75
2023/09/02 10:54:47;;;;;;;2.30;1.10;;;;;;;;;;5056879;28;20537;-74
2023/09/02 10:57:14;;;;;;;3.43;1.40;;;;;;;;;;5057699;28;20170;-75
2023/09/02 10:59:41;;;;;;;2.90;1.40;;;;;;;;;;5039736;28;20181;-74
2023/09/02 11:02:10;;;;;;;2.33;1.20;;;;;;;;;;5023449;28;20578;-75
2023/09/02 11:08:49;;;;;;;1.23;1.10;;;;;;;;;;5057483;28;20225;-75
2023/09/02 11:11:19;;;;;;;2.37;1.00;;;;;;;;;;5020640;28;20214;-73
2023/09/02 11:14:05;;;;;;;1.73;1.40;;;;;;;;;;5037648;28;20538;-73
2023/09/02 11:16:33;;;;;;;4.00;1.40;;;;;;;;;;5007328;28;20185;-75
2023/09/02 11:22:56;;;;;;;1.77;1.13;;;;;;;;;;5057125;28;20166;-74
2023/09/02 11:29:20;;;;;;;1.80;1.07;;;;;;;;;;5056689;28;20162;-73
2023/09/02 11:35:49;;;;;;;2.30;1.40;;;;;;;;;;5056362;28;20193;-74
2023/09/02 11:38:21;;;;;;;2.80;1.20;;;;;;;;;;5038928;28;20574;-74
2023/09/02 11:45:00;;;;;;;2.53;1.20;;;;;;;;;;5056535;28;20217;-74
2023/09/02 11:47:27;;;;;;;2.83;1.20;;;;;;;;;;5038930;28;20174;-69
2023/09/02 11:50:15;;;;;;;2.00;1.13;;;;;;;;;;5054663;28;20163;-69
2023/09/02 11:52:42;;;;;;;2.30;1.30;;;;;;;;;;5055998;28;20221;-69
2023/09/02 11:55:10;;;;;;;2.17;1.10;;;;;;;;;;5056138;28;20231;-67
2023/09/02 12:01:37;;;;;;;1.50;1.20;;;;;;;;;;5047861;28;20214;-68
2023/09/02 12:04:05;;;;;;;2.70;1.30;;;;;;;;;;5021526;28;20553;-68
2023/09/02 12:06:34;;;;;;;4.47;1.40;;;;;;;;;;5047275;28;20212;-68
2023/09/02 12:09:01;;;;;;;3.20;1.30;;;;;;;;;;5055622;28;20184;-68
2023/09/02 12:11:28;;;;;;;3.20;1.20;;;;;;;;;;5055311;28;20202;-68
2023/09/02 12:13:55;;;;;;;6.63;1.30;;;;;;;;;;5037928;28;20181;-68
2023/09/02 12:20:26;;;;;;;1.83;1.30;;;;;;;;;;5053908;28;20560;-69
2023/09/02 12:22:53;;;;;;;3.40;1.27;;;;;;;;;;5038091;28;20189;-69
2023/09/02 12:25:20;;;;;;;3.30;1.43;;;;;;;;;;5037664;28;20660;-69
2023/09/02 12:27:47;;;;;;;6.53;1.67;;;;;;;;;;5037390;28;20211;-68
2023/09/02 12:34:14;;;;;;;3.67;1.40;;;;;;;;;;5055177;28;20248;-68
2023/09/02 12:36:41;;;;;;;2.77;1.50;;;;;;;;;;5055730;28;20194;-68
2023/09/02 12:39:20;;;;;;;4.43;1.30;;;;;;;;;;5054996;28;20203;-69
2023/09/02 12:41:47;;;;;;;3.83;1.40;;;;;;;;;;5037659;28;20178;-69
2023/09/02 12:44:15;;;;;;;7.60;2.10;;;;;;;;;;5054812;28;20317;-69
2023/09/02 12:50:42;;;;;;;2.40;1.70;;;;;;;;;;5054665;28;20151;-70
2023/09/02 12:53:11;;;;;;;2.53;1.50;;;;;;;;;;5055451;28;20221;-69
2023/09/02 12:55:39;;;;;;;4.57;1.77;;;;;;;;;;5020019;28;20190;-68
2023/09/02 13:02:05;;;;;;;2.70;1.43;;;;;;;;;;5054487;28;20493;-68
2023/09/02 13:04:35;;;;;;;2.10;1.20;;;;;;;;;;5054617;28;20296;-68
2023/09/02 13:07:02;;;;;;;3.13;1.20;;;;;;;;;;5054300;28;20281;-68
2023/09/02 13:09:30;;;;;;;3.60;1.40;;;;;;;;;;5036978;28;20656;-68
2023/09/02 13:11:58;;;;;;;1.50;1.20;;;;;;;;;;5053121;28;20216;-67
2023/09/02 13:14:43;;;;;;;2.23;1.23;;;;;;;;;;5055742;28;20170;-69
2023/09/02 13:17:15;;;;;;;3.03;1.20;;;;;;;;;;5036558;28;20216;-69
2023/09/02 13:19:44;;;;;;;2.10;1.10;;;;;;;;;;5052617;28;20201;-69
2023/09/02 13:22:12;;;;;;;2.07;1.20;;;;;;;;;;5036629;28;20221;-69
2023/09/02 13:24:39;;;;;;;1.93;1.13;;;;;;;;;;5054215;28;20732;-68
2023/09/02 13:27:09;;;;;;;2.13;1.30;;;;;;;;;;5054483;28;20210;-69
2023/09/02 13:29:36;;;;;;;3.87;1.27;;;;;;;;;;5052696;28;20268;-69
2023/09/02 13:32:07;;;;;;;4.03;1.33;;;;;;;;;;5036264;28;20273;-68
2023/09/02 13:34:53;;;;;;;3.40;1.43;;;;;;;;;;5056441;28;20256;-68
2023/09/02 13:37:29;;;;;;;2.10;1.30;;;;;;;;;;5052664;28;20195;-68
2023/09/02 13:40:14;;;;;;;1.30;1.20;;;;;;;;;;5039495;28;20498;-68
2023/09/02 13:42:43;;;;;;;3.97;1.90;;;;;;;;;;5035741;28;20248;-68
2023/09/02 13:45:29;;;;;;;3.23;1.60;;;;;;;;;;5069366;28;20243;-67
2023/09/02 13:47:57;;;;;;;2.33;1.20;;;;;;;;;;5036230;28;20198;-68
2023/09/02 13:50:24;;;;;;;1.50;1.20;;;;;;;;;;5052665;28;20213;-68
2023/09/02 13:52:51;;;;;;;1.60;1.13;;;;;;;;;;5052477;28;20230;-67
2023/09/02 13:55:19;;;;;;;2.17;1.17;;;;;;;;;;5036000;28;20183;-68
2023/09/02 13:57:46;;;;;;;2.00;1.20;;;;;;;;;;5035980;28;20530;-69
2023/09/02 14:00:27;;;;;;;1.93;1.10;;;;;;;;;;5035964;28;20198;-68
2023/09/02 14:02:54;;;;;;;2.43;1.23;;;;;;;;;;5036316;28;20633;-68
2023/09/02 14:05:22;;;;;;;3.23;1.40;;;;;;;;;;5037050;28;20204;-68
2023/09/02 14:07:49;;;;;;;3.53;1.43;;;;;;;;;;5040044;28;20202;-68
2023/09/02 14:14:33;;;;;;;3.40;1.40;;;;;;;;;;5057731;28;20237;-68
2023/09/02 14:17:01;;;;;;;2.97;1.40;;;;;;;;;;5057478;28;20187;-68
2023/09/02 14:19:28;;;;;;;2.10;1.43;;;;;;;;;;5057748;28;20428;-68
2023/09/02 14:21:55;;;;;;;5.80;1.80;;;;;;;;;;5056485;28;20258;-68
2023/09/02 14:24:23;;;;;;;4.60;1.53;;;;;;;;;;5059273;28;20213;-68
2023/09/02 14:27:10;;;;;;;2.47;1.60;;;;;;;;;;5059454;28;20197;-68
2023/09/02 14:29:38;;;;;;;2.40;1.70;;;;;;;;;;5059443;28;20196;-67
2023/09/02 14:32:06;;;;;;;3.37;1.40;;;;;;;;;;5060128;28;20224;-68
2023/09/02 14:34:34;;;;;;;3.60;1.77;;;;;;;;;;5075837;28;20186;-68
2023/09/02 14:37:01;;;;;;;3.07;1.57;;;;;;;;;;5059208;28;20286;-68
2023/09/02 14:39:29;;;;;;;3.07;1.83;;;;;;;;;;5059325;28;20213;-68
2023/09/02 14:41:56;;;;;;;1.80;1.30;;;;;;;;;;5059345;28;20182;-68
2023/09/02 14:48:17;;;;;;;2.67;1.50;;;;;;;;;;5077082;28;20232;-69
2023/09/02 14:50:47;;;;;;;8.00;1.80;;;;;;;;;;5059536;28;20186;-68
2023/09/02 14:53:14;;;;;;;5.00;1.30;;;;;;;;;;5058962;28;20222;-67
2023/09/02 14:55:41;;;;;;;2.90;1.60;;;;;;;;;;5059050;28;20194;-67
2023/09/02 14:58:08;;;;;;;5.07;1.40;;;;;;;;;;5042657;28;20322;-68
2023/09/02 15:00:35;;;;;;;3.77;1.33;;;;;;;;;;5054354;28;20637;-67
2023/09/02 15:03:45;;;;;;;4.07;1.50;;;;;;;;;;5057011;28;20217;-71
2023/09/02 15:10:29;;;;;;;3.87;1.80;;;;;;;;;;5056537;28;20581;-72
2023/09/02 15:12:56;;;;;;;2.20;1.80;;;;;;;;;;5056772;28;20648;-77
2023/09/02 15:15:24;;;;;;;4.47;2.37;;;;;;;;;;5056014;28;20228;-76
2023/09/02 15:17:52;;;;;;;2.57;1.40;;;;;;;;;;5054814;28;20617;-75
2023/09/02 15:20:23;;;;;;;2.30;1.40;;;;;;;;;;5039425;28;20190;-80
2023/09/02 15:22:51;;;;;;;1.70;1.20;;;;;;;;;;5057965;28;20529;-82
2023/09/02 15:29:23;;;;;;;2.53;1.83;;;;;;;;;;5057027;28;20186;-81
2023/09/02 15:31:51;;;;;;;3.43;1.53;;;;;;;;;;5057737;28;20187;-81
2023/09/02 15:34:19;;;;;;;3.50;1.60;;;;;;;;;;5039412;28;20200;-81
2023/09/02 15:36:48;;;;;;;2.50;1.50;;;;;;;;;;5041104;28;20179;-82
2023/09/02 15:39:22;;;;;;;2.10;1.50;;;;;;;;;;5041654;28;20277;-79
2023/09/02 15:41:49;;;;;;;2.03;1.50;;;;;;;;;;5023138;28;20534;-79
2023/09/02 15:44:16;;;;;;;3.13;1.50;;;;;;;;;;5038684;28;20203;-81
2023/09/02 15:46:43;;;;;;;1.90;1.40;;;;;;;;;;5055701;28;20236;-81
2023/09/02 15:49:11;;;;;;;1.93;1.33;;;;;;;;;;5038918;28;20687;-82
2023/09/02 15:51:38;;;;;;;2.33;1.50;;;;;;;;;;5039547;28;20214;-81
2023/09/02 15:54:05;;;;;;;2.17;1.30;;;;;;;;;;5056579;28;20178;-82
2023/09/02 15:56:34;;;;;;;3.53;1.50;;;;;;;;;;5048738;28;20183;-80
2023/09/02 15:59:01;;;;;;;1.97;1.50;;;;;;;;;;5039289;28;20565;-81
2023/09/02 16:01:29;;;;;;;2.83;1.90;;;;;;;;;;5056106;28;20210;-80
2023/09/02 16:03:58;;;;;;;4.07;1.67;;;;;;;;;;5039379;28;20187;-80
2023/09/02 16:06:25;;;;;;;2.80;1.87;;;;;;;;;;5055116;28;20250;-81
2023/09/02 16:08:52;;;;;;;3.40;1.77;;;;;;;;;;5039120;28;20244;-81
2023/09/02 16:11:36;;;;;;;2.13;1.63;;;;;;;;;;5041371;28;20187;-82
2023/09/02 16:14:03;;;;;;;2.43;1.70;;;;;;;;;;5055320;28;20187;-80
2023/09/02 16:16:31;;;;;;;3.37;1.60;;;;;;;;;;5040166;28;20195;-81
2023/09/02 16:19:02;;;;;;;2.20;1.70;;;;;;;;;;5039090;28;20171;-82
2023/09/02 16:21:29;;;;;;;3.23;1.60;;;;;;;;;;5038774;28;20189;-82
2023/09/02 16:24:13;;;;;;;2.53;1.83;;;;;;;;;;5040986;28;20143;-82
2023/09/02 16:26:41;;;;;;;2.80;2.00;;;;;;;;;;5056824;28;20663;-72
2023/09/02 16:29:08;;;;;;;2.57;1.87;;;;;;;;;;5037006;28;20175;-72
2023/09/02 16:31:35;;;;;;;3.60;1.93;;;;;;;;;;5037493;28;20182;-72
2023/09/02 16:34:02;;;;;;;5.97;2.03;;;;;;;;;;5055375;28;20667;-72
2023/09/02 16:36:47;;;;;;;4.40;2.10;;;;;;;;;;5054091;28;20610;-72
2023/09/02 16:39:13;;;;;;;4.37;2.23;;;;;;;;;;5055220;28;20182;-72
2023/09/02 16:41:41;;;;;;;5.00;2.60;;;;;;;;;;5037786;28;20186;-72
2023/09/02 16:44:08;;;;;;;3.43;2.47;;;;;;;;;;5054567;28;20285;-72
2023/09/02 16:46:36;;;;;;;6.33;2.80;;;;;;;;;;5055180;28;20193;-72
2023/09/02 16:49:03;;;;;;;3.33;2.50;;;;;;;;;;5054458;28;20198;-72
2023/09/02 16:51:30;;;;;;;7.00;2.47;;;;;;;;;;5036696;28;20217;-73
2023/09/02 16:53:57;;;;;;;7.57;2.80;;;;;;;;;;5037348;28;20229;-73
2023/09/02 16:56:42;;;;;;;10.10;2.70;;;;;;;;;;5053730;28;20241;-72
2023/09/02 16:59:08;;;;;;;6.50;2.50;;;;;;;;;;5055144;28;20197;-73
2023/09/02 17:01:36;;;;;;;4.73;2.50;;;;;;;;;;5053074;28;20182;-72
2023/09/02 17:04:02;;;;;;;5.63;3.00;;;;;;;;;;5047820;28;20528;-73
2023/09/02 17:06:33;;;;;;;10.23;2.77;;;;;;;;;;5039924;28;20205;-72
2023/09/02 17:09:02;;;;;;;7.63;2.87;;;;;;;;;;5073247;28;20201;-72
2023/09/02 17:11:29;;;;;;;8.93;2.30;;;;;;;;;;5073448;28;20202;-71
2023/09/02 17:13:56;;;;;;;5.67;2.50;;;;;;;;;;5074058;28;20260;-73
2023/09/02 17:16:42;;;;;;;22.93;3.57;;;;;;;;;;5074067;28;20245;-72
2023/09/02 17:19:09;;;;;;;34.83;4.90;;;;;;;;;;5056478;28;20506;-73
2023/09/02 17:21:36;;;;;;;12.07;4.27;;;;;;;;;;5056186;28;20189;-71
2023/09/02 17:24:03;;;;;;;7.20;3.97;;;;;;;;;;5057008;28;20190;-80
2023/09/02 17:26:30;;;;;;;6.43;4.23;;;;;;;;;;5073507;28;20289;-78
2023/09/02 17:28:57;;;;;;;4.90;4.23;;;;;;;;;;5075527;28;20178;-77
2023/09/02 17:31:24;;;;;;;5.67;4.43;;;;;;;;;;5073666;28;20529;-78
2023/09/02 17:33:51;;;;;;;7.90;5.23;;;;;;;;;;5057499;28;20640;-77
2023/09/02 17:36:18;;;;;;;6.60;5.47;;;;;;;;;;5058287;28;20320;-78
2023/09/02 17:38:45;;;;;;;10.47;6.30;;;;;;;;;;5039023;28;20182;-79
2023/09/02 17:41:11;;;;;;;7.73;6.07;;;;;;;;;;5046285;28;20174;-78
2023/09/02 17:43:56;;;;;;;10.73;6.53;;;;;;;;;;5060429;28;20185;-75
2023/09/02 17:46:27;;;;;;;9.17;6.30;;;;;;;;;;5074404;28;20205;-73
2023/09/02 17:48:57;;;;;;;12.70;9.60;;;;;;;;;;5056936;28;20208;-73
2023/09/02 17:51:29;;;;;;;10.63;6.40;;;;;;;;;;5057645;28;20221;-74
2023/09/02 17:53:56;;;;;;;5.13;3.57;;;;;;;;;;5073333;28;20162;-74
2023/09/02 17:56:24;;;;;;;5.23;3.77;;;;;;;;;;5056669;28;20186;-76
2023/09/02 17:58:53;;;;;;;5.67;3.20;;;;;;;;;;5036674;28;20229;-72
2023/09/02 18:01:20;;;;;;;4.40;3.20;;;;;;;;;;5072811;28;20194;-74
2023/09/02 18:03:47;;;;;;;4.53;3.30;;;;;;;;;;5039838;28;20190;-76
2023/09/02 18:06:14;;;;;;;4.60;3.10;;;;;;;;;;5075015;28;20280;-76